Time;durP1;ratioP1;P1;durP2;ratioP2;P2;SDS_P1;SDS_P2;PMS_P1;PMS_P2;Temp;Humidity;BMP_temperature;BMP_pressure;BME280_temperature;BME280_humidity;BME280_pressure;Samples;Min_cycle;Max_cycle;Signal;HPM_P1;HPM_P2
2022/11/18 00:00:48;;;;;;;15.57;12.10;;;;;;;;;;5075050;28;20469;-71
2022/11/18 00:03:37;;;;;;;14.70;12.13;;;;;;;;;;5073636;28;20446;-71
2022/11/18 00:06:31;;;;;;;16.47;12.03;;;;;;;;;;5073318;28;20489;-71
2022/11/18 00:09:21;;;;;;;13.90;11.03;;;;;;;;;;5072920;28;20844;-71
2022/11/18 00:15:13;;;;;;;17.03;11.47;;;;;;;;;;5043527;28;20456;-71
2022/11/18 00:18:04;;;;;;;16.77;11.83;;;;;;;;;;5073103;28;20460;-71
2022/11/18 00:21:01;;;;;;;18.07;12.80;;;;;;;;;;5067089;28;20617;-71
2022/11/18 00:23:52;;;;;;;17.00;12.00;;;;;;;;;;5071996;28;20449;-71
2022/11/18 00:26:43;;;;;;;18.00;11.83;;;;;;;;;;5076514;28;20456;-71
2022/11/18 00:29:32;;;;;;;16.10;11.70;;;;;;;;;;5080581;28;20455;-71
2022/11/18 00:32:25;;;;;;;15.10;11.70;;;;;;;;;;5077257;28;20557;-72
2022/11/18 00:35:17;;;;;;;16.43;12.27;;;;;;;;;;5073477;28;20449;-71
2022/11/18 00:38:08;;;;;;;16.97;12.50;;;;;;;;;;5077140;28;20462;-71
2022/11/18 00:41:07;;;;;;;18.27;12.07;;;;;;;;;;5073512;28;20469;-71
2022/11/18 00:43:57;;;;;;;17.60;12.73;;;;;;;;;;5070057;28;20456;-71
2022/11/18 00:46:48;;;;;;;17.70;12.00;;;;;;;;;;5075292;28;20449;-71
2022/11/18 00:49:38;;;;;;;15.23;12.27;;;;;;;;;;5073905;28;20840;-71
2022/11/18 00:52:34;;;;;;;18.20;12.83;;;;;;;;;;5074765;28;21013;-71
2022/11/18 00:55:23;;;;;;;14.87;11.70;;;;;;;;;;5072163;28;20497;-71
2022/11/18 00:58:14;;;;;;;17.30;12.13;;;;;;;;;;5076243;28;20454;-71
2022/11/18 01:01:06;;;;;;;18.60;12.47;;;;;;;;;;5071166;28;21006;-71
2022/11/18 01:03:58;;;;;;;17.30;12.23;;;;;;;;;;5070310;28;20461;-71
2022/11/18 01:06:46;;;;;;;15.63;11.40;;;;;;;;;;5072258;28;20452;-71
2022/11/18 01:09:44;;;;;;;19.40;13.57;;;;;;;;;;5072856;28;20796;-71
2022/11/18 01:15:46;;;;;;;19.67;13.73;;;;;;;;;;5071349;28;20548;-72
2022/11/18 01:18:34;;;;;;;16.40;11.53;;;;;;;;;;5067106;28;20454;-71
2022/11/18 01:21:23;;;;;;;18.40;12.77;;;;;;;;;;5072817;28;20472;-71
2022/11/18 01:24:13;;;;;;;17.50;12.40;;;;;;;;;;5075869;28;20547;-71
2022/11/18 01:27:02;;;;;;;20.47;12.97;;;;;;;;;;5074680;28;20464;-71
2022/11/18 01:29:52;;;;;;;18.30;13.27;;;;;;;;;;5070155;28;20960;-71
2022/11/18 01:32:42;;;;;;;17.37;12.73;;;;;;;;;;5071010;28;20512;-71
2022/11/18 01:35:35;;;;;;;19.70;13.77;;;;;;;;;;5075632;28;20466;-71
2022/11/18 01:38:23;;;;;;;20.07;13.60;;;;;;;;;;5066592;28;20453;-71
2022/11/18 01:41:12;;;;;;;19.20;12.87;;;;;;;;;;5069859;28;20483;-71
2022/11/18 01:44:25;;;;;;;16.93;12.30;;;;;;;;;;5069764;28;20454;-71
2022/11/18 01:47:13;;;;;;;18.30;13.43;;;;;;;;;;5070757;28;20464;-71
2022/11/18 01:50:05;;;;;;;18.33;12.73;;;;;;;;;;5073398;28;20510;-71
2022/11/18 01:52:57;;;;;;;19.63;13.17;;;;;;;;;;5067980;28;20487;-71
2022/11/18 01:56:00;;;;;;;19.03;13.63;;;;;;;;;;5075392;28;20445;-71
2022/11/18 01:58:55;;;;;;;19.20;13.93;;;;;;;;;;5075490;28;20465;-71
2022/11/18 02:01:47;;;;;;;22.10;15.80;;;;;;;;;;5075780;28;20558;-71
2022/11/18 02:04:38;;;;;;;19.60;13.90;;;;;;;;;;5076067;28;20451;-71
2022/11/18 02:07:31;;;;;;;21.37;14.57;;;;;;;;;;5072279;28;20453;-74
2022/11/18 02:10:25;;;;;;;15.87;11.73;;;;;;;;;;5073953;28;20827;-71
2022/11/18 02:13:15;;;;;;;20.33;14.10;;;;;;;;;;5082624;28;20477;-71
2022/11/18 02:16:08;;;;;;;21.47;14.07;;;;;;;;;;5096743;28;20457;-71
2022/11/18 02:19:04;;;;;;;20.20;14.87;;;;;;;;;;5094516;28;20460;-70
2022/11/18 02:21:58;;;;;;;21.80;14.30;;;;;;;;;;5079389;28;20480;-71
2022/11/18 02:24:55;;;;;;;20.27;14.77;;;;;;;;;;5081134;28;20464;-71
2022/11/18 02:28:01;;;;;;;20.73;14.60;;;;;;;;;;5080039;28;20463;-71
2022/11/18 02:30:54;;;;;;;20.40;14.23;;;;;;;;;;5079534;28;20469;-71
2022/11/18 02:33:54;;;;;;;21.43;14.17;;;;;;;;;;5079386;28;20538;-71
2022/11/18 02:36:51;;;;;;;18.40;12.70;;;;;;;;;;5074437;28;20933;-71
2022/11/18 02:39:43;;;;;;;18.10;13.00;;;;;;;;;;5079198;28;21706;-71
2022/11/18 02:42:33;;;;;;;18.20;13.77;;;;;;;;;;5077409;28;21039;-71
2022/11/18 02:45:26;;;;;;;19.67;14.50;;;;;;;;;;5078428;28;20448;-71
2022/11/18 02:48:20;;;;;;;19.43;14.90;;;;;;;;;;5074434;28;20457;-71
2022/11/18 02:51:11;;;;;;;20.67;14.60;;;;;;;;;;5076236;28;20492;-71
2022/11/18 02:54:04;;;;;;;20.63;14.93;;;;;;;;;;5079085;28;21003;-71
2022/11/18 02:56:56;;;;;;;17.97;13.30;;;;;;;;;;5079685;28;20475;-71
2022/11/18 02:59:45;;;;;;;19.60;14.20;;;;;;;;;;5079514;28;20445;-71
2022/11/18 03:02:42;;;;;;;20.30;14.30;;;;;;;;;;5068625;28;20477;-71
2022/11/18 03:05:40;;;;;;;18.40;14.07;;;;;;;;;;5077015;28;21217;-71
2022/11/18 03:08:32;;;;;;;17.30;13.73;;;;;;;;;;5076127;28;20450;-71
2022/11/18 03:11:26;;;;;;;17.07;13.20;;;;;;;;;;5069658;28;20488;-71
2022/11/18 03:14:21;;;;;;;19.30;14.30;;;;;;;;;;5075716;28;20481;-71
2022/11/18 03:17:13;;;;;;;17.40;14.10;;;;;;;;;;5075156;28;20458;-71
2022/11/18 03:20:10;;;;;;;17.70;13.67;;;;;;;;;;5077754;28;20474;-71
2022/11/18 03:23:06;;;;;;;17.93;13.40;;;;;;;;;;5071279;28;20493;-71
2022/11/18 03:26:00;;;;;;;17.60;13.60;;;;;;;;;;5078902;28;20441;-71
2022/11/18 03:28:54;;;;;;;15.17;12.63;;;;;;;;;;5064521;28;20461;-71
2022/11/18 03:31:47;;;;;;;15.00;12.30;;;;;;;;;;5068793;28;20481;-71
2022/11/18 03:34:42;;;;;;;17.80;13.57;;;;;;;;;;5074480;28;20465;-71
2022/11/18 03:37:34;;;;;;;15.13;12.73;;;;;;;;;;5071837;28;20449;-71
2022/11/18 03:40:28;;;;;;;16.13;11.90;;;;;;;;;;5075590;28;20968;-71
2022/11/18 03:43:20;;;;;;;16.50;13.27;;;;;;;;;;5072288;28;21142;-71
2022/11/18 03:46:23;;;;;;;17.27;13.03;;;;;;;;;;5067133;28;20877;-71
2022/11/18 03:49:20;;;;;;;16.53;13.47;;;;;;;;;;5075694;28;20469;-71
2022/11/18 03:52:19;;;;;;;15.23;11.80;;;;;;;;;;5070700;28;20477;-71
2022/11/18 03:55:20;;;;;;;16.20;12.20;;;;;;;;;;5071177;28;20516;-71
2022/11/18 03:58:21;;;;;;;17.00;12.40;;;;;;;;;;5066446;28;20449;-71
2022/11/18 04:01:12;;;;;;;18.23;13.87;;;;;;;;;;5069543;28;20976;-71
2022/11/18 04:04:03;;;;;;;15.87;12.57;;;;;;;;;;5072669;28;20456;-71
2022/11/18 04:06:55;;;;;;;16.67;13.63;;;;;;;;;;5071498;28;20454;-71
2022/11/18 04:09:48;;;;;;;17.07;12.77;;;;;;;;;;5071268;28;20484;-71
2022/11/18 04:12:43;;;;;;;17.03;12.80;;;;;;;;;;5072997;28;20500;-71
2022/11/18 04:15:38;;;;;;;17.33;13.40;;;;;;;;;;5067231;28;21272;-71
2022/11/18 04:18:28;;;;;;;15.90;12.90;;;;;;;;;;5072482;28;20461;-71
2022/11/18 04:21:23;;;;;;;18.27;14.10;;;;;;;;;;5076749;28;20485;-70
2022/11/18 04:24:11;;;;;;;19.67;13.90;;;;;;;;;;5073415;28;20452;-71
2022/11/18 04:27:11;;;;;;;16.13;12.87;;;;;;;;;;5074407;28;20457;-71
2022/11/18 04:30:04;;;;;;;17.50;13.17;;;;;;;;;;5076285;28;20452;-71
2022/11/18 04:32:58;;;;;;;17.70;13.90;;;;;;;;;;5076044;28;20855;-71
2022/11/18 04:35:47;;;;;;;17.47;14.37;;;;;;;;;;5076805;28;20463;-71
2022/11/18 04:38:38;;;;;;;23.53;15.63;;;;;;;;;;5071565;28;20445;-71
2022/11/18 04:44:31;;;;;;;15.63;11.57;;;;;;;;;;5066749;28;20440;-71
2022/11/18 04:47:20;;;;;;;19.87;14.40;;;;;;;;;;5074076;28;20453;-71
2022/11/18 04:50:13;;;;;;;18.57;14.50;;;;;;;;;;5079306;28;20452;-71
2022/11/18 04:53:07;;;;;;;20.10;15.30;;;;;;;;;;5073841;28;20947;-71
2022/11/18 04:55:55;;;;;;;21.83;15.70;;;;;;;;;;5076268;28;20477;-71
2022/11/18 04:58:48;;;;;;;18.13;14.60;;;;;;;;;;5075569;28;20455;-70
2022/11/18 05:01:37;;;;;;;19.47;14.50;;;;;;;;;;5076019;28;20511;-71
2022/11/18 05:04:31;;;;;;;19.57;15.20;;;;;;;;;;5074207;28;20610;-71
2022/11/18 05:07:23;;;;;;;19.47;15.00;;;;;;;;;;5078260;28;20817;-71
2022/11/18 05:10:14;;;;;;;18.70;14.57;;;;;;;;;;5080924;28;20474;-71
2022/11/18 05:13:02;;;;;;;21.50;15.73;;;;;;;;;;5100499;28;20477;-71
2022/11/18 05:15:53;;;;;;;20.03;15.63;;;;;;;;;;5094783;28;20477;-70
2022/11/18 05:18:42;;;;;;;21.30;15.57;;;;;;;;;;5101069;28;20472;-72
2022/11/18 05:21:35;;;;;;;22.77;16.03;;;;;;;;;;5097574;28;20495;-70
2022/11/18 05:24:32;;;;;;;19.60;15.63;;;;;;;;;;5080611;28;20447;-71
2022/11/18 05:27:20;;;;;;;19.10;14.73;;;;;;;;;;5078012;28;20456;-71
2022/11/18 05:30:17;;;;;;;20.33;15.90;;;;;;;;;;5074391;28;20452;-71
2022/11/18 05:33:09;;;;;;;18.93;15.00;;;;;;;;;;5080301;28;20557;-71
2022/11/18 05:36:03;;;;;;;21.17;16.77;;;;;;;;;;5074464;28;20481;-71
2022/11/18 05:39:01;;;;;;;20.67;15.17;;;;;;;;;;5074714;28;20583;-71
2022/11/18 05:45:03;;;;;;;21.07;15.70;;;;;;;;;;5074840;28;20473;-70
2022/11/18 05:48:03;;;;;;;22.67;16.47;;;;;;;;;;5073270;28;20453;-71
2022/11/18 05:50:54;;;;;;;21.40;17.03;;;;;;;;;;5076248;28;20468;-71
2022/11/18 05:53:51;;;;;;;20.63;15.90;;;;;;;;;;5082100;28;20984;-71
2022/11/18 05:56:44;;;;;;;21.20;15.73;;;;;;;;;;5082178;28;20492;-71
2022/11/18 05:59:39;;;;;;;23.20;17.07;;;;;;;;;;5071855;28;20455;-71
2022/11/18 06:02:33;;;;;;;23.00;15.87;;;;;;;;;;5079695;28;21135;-71
2022/11/18 06:05:33;;;;;;;23.27;15.53;;;;;;;;;;5078330;28;20941;-71
2022/11/18 06:08:29;;;;;;;20.33;15.53;;;;;;;;;;5078970;28;20501;-71
2022/11/18 06:11:21;;;;;;;18.87;14.17;;;;;;;;;;5061077;28;20473;-71
2022/11/18 06:14:18;;;;;;;22.43;15.97;;;;;;;;;;5067694;28;20468;-70
2022/11/18 06:17:10;;;;;;;23.60;16.37;;;;;;;;;;5066617;28;20843;-71
2022/11/18 06:20:02;;;;;;;20.60;15.40;;;;;;;;;;5066269;28;20461;-71
2022/11/18 06:22:58;;;;;;;22.63;15.70;;;;;;;;;;5062974;28;20495;-71
2022/11/18 06:25:55;;;;;;;21.07;16.20;;;;;;;;;;5072869;28;20456;-71
2022/11/18 06:28:49;;;;;;;20.67;15.80;;;;;;;;;;5073061;28;20442;-71
2022/11/18 06:31:37;;;;;;;22.03;16.00;;;;;;;;;;5072742;28;20473;-71
2022/11/18 06:34:33;;;;;;;22.30;16.50;;;;;;;;;;5077100;28;20823;-71
2022/11/18 06:37:31;;;;;;;21.17;15.90;;;;;;;;;;5075020;28;20463;-71
2022/11/18 06:40:20;;;;;;;20.87;15.50;;;;;;;;;;5074353;28;20449;-70
2022/11/18 06:49:48;;;;;;;20.17;15.67;;;;;;;;;;5073416;28;20445;-71
2022/11/18 06:52:40;;;;;;;21.60;15.83;;;;;;;;;;5080337;28;20476;-71
2022/11/18 06:55:30;;;;;;;25.43;17.63;;;;;;;;;;5081716;28;20479;-71
2022/11/18 06:58:18;;;;;;;23.37;16.80;;;;;;;;;;5081719;28;20456;-71
2022/11/18 07:01:11;;;;;;;22.63;16.53;;;;;;;;;;5091227;28;20480;-71
2022/11/18 07:04:01;;;;;;;23.77;17.67;;;;;;;;;;5104409;28;20449;-70
2022/11/18 07:06:51;;;;;;;23.70;17.17;;;;;;;;;;5102689;28;20452;-70
2022/11/18 07:09:41;;;;;;;23.80;17.37;;;;;;;;;;5081598;28;20452;-71
2022/11/18 07:12:30;;;;;;;22.87;17.10;;;;;;;;;;5079998;28;20477;-71
2022/11/18 07:15:19;;;;;;;23.10;16.70;;;;;;;;;;5081722;28;20833;-71
2022/11/18 07:18:07;;;;;;;25.03;17.37;;;;;;;;;;5081174;28;20964;-71
2022/11/18 07:20:56;;;;;;;22.43;16.27;;;;;;;;;;5078836;28;20465;-71
2022/11/18 07:23:46;;;;;;;23.37;16.33;;;;;;;;;;5081786;28;20453;-71
2022/11/18 07:26:35;;;;;;;21.40;15.17;;;;;;;;;;5082604;28;20454;-72
2022/11/18 07:29:24;;;;;;;21.97;15.60;;;;;;;;;;5073529;28;20546;-72
2022/11/18 07:32:15;;;;;;;22.33;16.13;;;;;;;;;;5079901;28;20483;-70
2022/11/18 07:35:03;;;;;;;21.40;15.07;;;;;;;;;;5081171;28;20460;-70
2022/11/18 07:37:52;;;;;;;22.83;15.67;;;;;;;;;;5080306;28;20966;-72
2022/11/18 07:40:45;;;;;;;22.43;16.23;;;;;;;;;;5078216;28;21014;-72
2022/11/18 07:43:36;;;;;;;21.70;15.67;;;;;;;;;;5079011;28;20903;-72
2022/11/18 07:46:28;;;;;;;20.67;14.20;;;;;;;;;;5080347;28;20442;-72
2022/11/18 07:49:20;;;;;;;22.17;14.93;;;;;;;;;;5080063;28;20808;-72
2022/11/18 07:52:12;;;;;;;19.23;13.80;;;;;;;;;;5077518;28;20473;-72
2022/11/18 07:55:02;;;;;;;19.27;14.43;;;;;;;;;;5078100;28;20465;-72
2022/11/18 07:57:56;;;;;;;17.63;14.07;;;;;;;;;;5077946;28;20449;-72
2022/11/18 08:00:45;;;;;;;17.83;13.93;;;;;;;;;;5078180;28;20477;-72
2022/11/18 08:03:33;;;;;;;18.83;13.13;;;;;;;;;;5079655;28;20469;-72
2022/11/18 08:06:22;;;;;;;17.23;14.40;;;;;;;;;;5080929;28;20477;-72
2022/11/18 08:09:10;;;;;;;19.20;13.83;;;;;;;;;;5080712;28;20460;-72
2022/11/18 08:11:59;;;;;;;17.83;14.30;;;;;;;;;;5078754;28;20465;-70
2022/11/18 08:14:49;;;;;;;18.60;13.70;;;;;;;;;;5078138;28;21093;-72
2022/11/18 08:17:38;;;;;;;20.97;14.57;;;;;;;;;;5079378;28;20477;-70
2022/11/18 08:20:26;;;;;;;18.47;13.80;;;;;;;;;;5080391;28;20470;-72
2022/11/18 08:23:15;;;;;;;17.33;13.37;;;;;;;;;;5078005;28;20461;-72
2022/11/18 08:26:05;;;;;;;19.43;14.70;;;;;;;;;;5077096;28;20456;-72
2022/11/18 08:28:54;;;;;;;17.97;12.80;;;;;;;;;;5080280;28;20445;-72
2022/11/18 08:31:44;;;;;;;17.90;12.60;;;;;;;;;;5077993;28;20565;-72
2022/11/18 08:34:33;;;;;;;17.20;13.37;;;;;;;;;;5079518;28;22263;-72
2022/11/18 08:37:22;;;;;;;20.60;14.53;;;;;;;;;;5079338;28;20469;-72
2022/11/18 08:40:11;;;;;;;17.00;13.60;;;;;;;;;;5079420;28;20485;-72
2022/11/18 08:43:00;;;;;;;16.47;12.20;;;;;;;;;;5078289;28;20508;-72
2022/11/18 08:45:48;;;;;;;18.40;13.60;;;;;;;;;;5078262;28;20455;-72
2022/11/18 08:48:38;;;;;;;18.07;13.77;;;;;;;;;;5080395;28;20440;-72
2022/11/18 08:51:27;;;;;;;19.07;14.00;;;;;;;;;;5078540;28;20482;-72
2022/11/18 08:54:16;;;;;;;19.47;14.50;;;;;;;;;;5078206;28;20464;-72
2022/11/18 08:57:04;;;;;;;17.67;13.43;;;;;;;;;;5077204;28;20469;-72
2022/11/18 08:59:56;;;;;;;18.37;14.07;;;;;;;;;;5077006;28;20460;-72
2022/11/18 09:02:46;;;;;;;17.40;13.00;;;;;;;;;;5074979;28;21008;-72
2022/11/18 09:05:38;;;;;;;17.80;13.07;;;;;;;;;;5078095;28;20954;-72
2022/11/18 09:08:28;;;;;;;17.00;12.70;;;;;;;;;;5079751;28;20456;-72
2022/11/18 09:11:17;;;;;;;17.50;13.70;;;;;;;;;;5080948;28;20498;-72
2022/11/18 09:14:06;;;;;;;15.53;12.03;;;;;;;;;;5076352;28;20461;-72
2022/11/18 09:17:15;;;;;;;15.83;12.40;;;;;;;;;;5079306;28;20591;-73
2022/11/18 09:20:04;;;;;;;15.63;12.17;;;;;;;;;;5077847;28;20466;-72
2022/11/18 09:22:54;;;;;;;16.37;12.67;;;;;;;;;;5077656;28;20481;-72
2022/11/18 09:25:42;;;;;;;17.57;12.47;;;;;;;;;;5078502;28;20464;-72
2022/11/18 09:28:31;;;;;;;14.80;10.50;;;;;;;;;;5077200;28;20456;-72
2022/11/18 09:31:20;;;;;;;14.47;10.93;;;;;;;;;;5076113;28;20629;-72
2022/11/18 09:34:09;;;;;;;17.40;12.77;;;;;;;;;;5080029;28;20468;-72
2022/11/18 09:36:57;;;;;;;15.80;12.10;;;;;;;;;;5077898;28;20851;-72
2022/11/18 09:39:48;;;;;;;16.10;12.10;;;;;;;;;;5075102;28;20506;-72
2022/11/18 09:42:45;;;;;;;14.20;11.47;;;;;;;;;;5076233;28;20868;-72
2022/11/18 09:45:36;;;;;;;15.67;12.07;;;;;;;;;;5077242;28;20450;-72
2022/11/18 09:49:11;;;;;;;15.27;12.17;;;;;;;;;;5072671;28;20461;-72
2022/11/18 09:51:38;;;;;;;14.50;10.87;;;;;;;;;;5076305;28;20476;-72
2022/11/18 09:54:29;;;;;;;15.43;10.57;;;;;;;;;;5077968;28;20587;-72
2022/11/18 09:57:20;;;;;;;13.60;11.43;;;;;;;;;;5077750;28;20484;-72
2022/11/18 10:00:14;;;;;;;13.53;10.90;;;;;;;;;;5074418;28;20461;-72
2022/11/18 10:03:05;;;;;;;13.40;10.20;;;;;;;;;;5078220;28;21083;-72
2022/11/18 10:05:56;;;;;;;13.20;10.60;;;;;;;;;;5091088;28;20466;-72
2022/11/18 10:08:53;;;;;;;13.50;10.63;;;;;;;;;;5087686;28;20454;-71
2022/11/18 10:11:46;;;;;;;13.97;10.67;;;;;;;;;;5084590;28;20496;-71
2022/11/18 10:14:48;;;;;;;12.03;9.83;;;;;;;;;;5096844;28;20483;-70
2022/11/18 10:17:44;;;;;;;12.03;10.20;;;;;;;;;;5102842;28;20472;-70
2022/11/18 10:20:38;;;;;;;11.83;9.90;;;;;;;;;;5083010;28;20472;-71
2022/11/18 10:23:30;;;;;;;11.07;9.70;;;;;;;;;;5082721;28;20548;-71
2022/11/18 10:26:33;;;;;;;10.57;8.77;;;;;;;;;;5079421;28;20449;-71
2022/11/18 10:29:22;;;;;;;9.30;8.30;;;;;;;;;;5084048;28;20449;-71
2022/11/18 10:32:13;;;;;;;10.10;8.27;;;;;;;;;;5079672;28;20469;-71
2022/11/18 10:35:02;;;;;;;10.13;8.80;;;;;;;;;;5080761;28;20453;-71
2022/11/18 10:38:01;;;;;;;8.97;8.07;;;;;;;;;;5080685;28;20478;-71
2022/11/18 10:41:00;;;;;;;11.20;7.43;;;;;;;;;;5080002;28;20484;-71
2022/11/18 10:43:49;;;;;;;8.83;7.27;;;;;;;;;;5084479;28;20457;-71
2022/11/18 10:46:38;;;;;;;9.10;7.50;;;;;;;;;;5078891;28;20453;-71
2022/11/18 10:49:28;;;;;;;8.07;7.23;;;;;;;;;;5081848;28;20484;-71
2022/11/18 10:52:18;;;;;;;8.97;7.30;;;;;;;;;;5082581;28;20469;-71
2022/11/18 10:55:20;;;;;;;8.13;7.23;;;;;;;;;;5080988;28;20457;-72
2022/11/18 10:58:10;;;;;;;7.60;6.80;;;;;;;;;;5080053;28;20495;-71
2022/11/18 11:01:05;;;;;;;7.60;6.50;;;;;;;;;;5076002;28;21052;-71
2022/11/18 11:03:57;;;;;;;9.33;6.80;;;;;;;;;;5078717;28;21029;-71
2022/11/18 11:06:47;;;;;;;7.37;6.57;;;;;;;;;;5094101;28;20467;-71
2022/11/18 11:09:36;;;;;;;8.07;6.40;;;;;;;;;;5102457;28;20457;-71
2022/11/18 11:12:27;;;;;;;10.60;7.23;;;;;;;;;;5099915;28;20488;-71
2022/11/18 11:15:18;;;;;;;7.10;5.93;;;;;;;;;;5099780;28;20453;-71
2022/11/18 11:21:19;;;;;;;8.43;6.97;;;;;;;;;;5086014;28;20830;-71
2022/11/18 11:24:12;;;;;;;8.80;7.40;;;;;;;;;;5079853;28;20449;-71
2022/11/18 11:27:06;;;;;;;8.17;6.50;;;;;;;;;;5082655;28;20476;-71
2022/11/18 11:30:19;;;;;;;10.10;7.13;;;;;;;;;;5080659;28;21323;-71
2022/11/18 11:33:19;;;;;;;7.57;5.97;;;;;;;;;;5083672;28;20465;-71
2022/11/18 11:36:16;;;;;;;8.67;6.90;;;;;;;;;;5100098;28;20430;-71
2022/11/18 11:39:09;;;;;;;6.80;5.80;;;;;;;;;;5103598;28;20484;-72
2022/11/18 11:42:04;;;;;;;9.53;7.00;;;;;;;;;;5086109;28;20484;-71
2022/11/18 11:44:57;;;;;;;9.67;7.10;;;;;;;;;;5079747;28;20481;-71
2022/11/18 11:48:05;;;;;;;9.93;7.40;;;;;;;;;;5080625;28;20445;-71
2022/11/18 11:50:55;;;;;;;8.70;6.77;;;;;;;;;;5075530;28;20476;-71
2022/11/18 11:54:06;;;;;;;8.60;6.80;;;;;;;;;;5081475;28;20462;-71
2022/11/18 11:56:56;;;;;;;8.40;6.60;;;;;;;;;;5080532;28;20472;-71
2022/11/18 11:59:48;;;;;;;9.07;7.10;;;;;;;;;;5080666;28;20461;-71
2022/11/18 12:03:03;;;;;;;8.50;7.10;;;;;;;;;;5077093;28;20495;-71
2022/11/18 12:05:53;;;;;;;9.03;6.30;;;;;;;;;;5079127;28;20448;-72
2022/11/18 12:08:48;;;;;;;9.70;7.47;;;;;;;;;;5079200;28;20457;-71
2022/11/18 12:11:41;;;;;;;7.00;6.20;;;;;;;;;;5079238;28;20563;-71
2022/11/18 12:14:37;;;;;;;8.43;7.20;;;;;;;;;;5078896;28;20491;-71
2022/11/18 12:17:32;;;;;;;8.53;6.00;;;;;;;;;;5078894;28;20473;-71
2022/11/18 12:20:40;;;;;;;7.43;6.33;;;;;;;;;;5076992;28;20473;-71
2022/11/18 12:23:29;;;;;;;7.90;6.40;;;;;;;;;;5072426;28;20446;-71
2022/11/18 12:26:33;;;;;;;8.10;6.93;;;;;;;;;;5079997;28;20458;-71
2022/11/18 12:29:24;;;;;;;8.63;6.47;;;;;;;;;;5069740;28;20530;-72
2022/11/18 12:32:27;;;;;;;7.47;6.30;;;;;;;;;;5074158;28;21232;-71
2022/11/18 12:35:33;;;;;;;8.57;6.33;;;;;;;;;;5075366;28;20569;-71
2022/11/18 12:38:30;;;;;;;7.57;6.50;;;;;;;;;;5077484;28;20471;-71
2022/11/18 12:44:39;;;;;;;7.00;6.03;;;;;;;;;;5078548;28;20461;-72
2022/11/18 12:47:42;;;;;;;8.80;6.27;;;;;;;;;;5075601;28;20851;-72
2022/11/18 12:50:46;;;;;;;8.60;7.10;;;;;;;;;;5073237;28;20448;-72
2022/11/18 12:53:38;;;;;;;8.73;6.27;;;;;;;;;;5077152;28;20471;-72
2022/11/18 12:56:33;;;;;;;8.20;6.37;;;;;;;;;;5078115;28;20457;-72
2022/11/18 12:59:28;;;;;;;8.47;6.10;;;;;;;;;;5077008;28;20974;-71
2022/11/18 13:02:22;;;;;;;6.23;5.27;;;;;;;;;;5071454;28;20490;-72
2022/11/18 13:05:20;;;;;;;7.20;5.37;;;;;;;;;;5075064;28;20997;-72
2022/11/18 13:08:13;;;;;;;6.00;5.30;;;;;;;;;;5079539;28;20466;-72
2022/11/18 13:20:38;;;;;;;6.50;5.30;;;;;;;;;;5073184;28;21436;-72
2022/11/18 13:26:36;;;;;;;5.87;4.60;;;;;;;;;;5079853;28;20452;-73
2022/11/18 13:29:29;;;;;;;5.63;4.90;;;;;;;;;;5100918;28;20457;-73
2022/11/18 13:32:21;;;;;;;5.57;4.60;;;;;;;;;;5088808;28;20505;-72
2022/11/18 13:35:12;;;;;;;5.00;4.40;;;;;;;;;;5085605;28;20452;-71
2022/11/18 13:38:01;;;;;;;4.90;4.20;;;;;;;;;;5073351;28;20449;-71
2022/11/18 13:41:11;;;;;;;7.20;5.30;;;;;;;;;;5074664;28;20814;-71
2022/11/18 13:44:14;;;;;;;6.17;4.80;;;;;;;;;;5073699;28;20558;-71
2022/11/18 13:47:12;;;;;;;5.57;4.03;;;;;;;;;;5074532;28;20460;-72
2022/11/18 13:50:04;;;;;;;4.40;4.00;;;;;;;;;;5077722;28;20451;-72
2022/11/18 13:52:59;;;;;;;4.43;4.03;;;;;;;;;;5078988;28;20494;-71
2022/11/18 13:55:49;;;;;;;4.47;3.97;;;;;;;;;;5072237;28;20457;-72
2022/11/18 13:58:39;;;;;;;4.30;3.90;;;;;;;;;;5071492;28;20494;-72
2022/11/18 14:01:53;;;;;;;5.20;3.70;;;;;;;;;;5075786;28;20484;-71
2022/11/18 14:04:50;;;;;;;3.80;3.13;;;;;;;;;;5093665;28;20448;-72
2022/11/18 14:07:39;;;;;;;3.93;3.53;;;;;;;;;;5075217;28;20459;-72
2022/11/18 14:10:31;;;;;;;3.63;3.33;;;;;;;;;;5078351;28;21526;-71
2022/11/18 14:13:28;;;;;;;3.50;3.20;;;;;;;;;;5072964;28;20453;-72
2022/11/18 14:16:31;;;;;;;3.40;3.10;;;;;;;;;;5078308;28;20581;-71
2022/11/18 14:19:29;;;;;;;4.20;3.80;;;;;;;;;;5073735;28;20479;-73
2022/11/18 14:22:20;;;;;;;3.47;3.13;;;;;;;;;;5074512;28;20530;-71
2022/11/18 14:25:17;;;;;;;3.57;3.27;;;;;;;;;;5075701;28;20481;-72
2022/11/18 14:28:13;;;;;;;5.20;3.70;;;;;;;;;;5074753;28;20489;-72
2022/11/18 14:31:03;;;;;;;3.70;3.40;;;;;;;;;;5069049;28;20485;-72
2022/11/18 14:34:10;;;;;;;3.37;3.07;;;;;;;;;;5079049;28;20449;-71
2022/11/18 14:36:58;;;;;;;3.47;2.83;;;;;;;;;;5078413;28;20455;-72
2022/11/18 14:39:56;;;;;;;3.73;3.23;;;;;;;;;;5081340;28;20484;-72
2022/11/18 14:42:45;;;;;;;3.67;3.33;;;;;;;;;;5075834;28;20489;-72
2022/11/18 14:45:33;;;;;;;3.90;3.20;;;;;;;;;;5081553;28;20442;-72
2022/11/18 14:48:24;;;;;;;6.07;3.80;;;;;;;;;;5072374;28;20462;-72
2022/11/18 14:51:19;;;;;;;6.33;4.13;;;;;;;;;;5080688;28;20871;-71
2022/11/18 14:54:12;;;;;;;9.20;7.30;;;;;;;;;;5067295;28;20449;-72
2022/11/18 14:57:03;;;;;;;9.70;5.87;;;;;;;;;;5074051;28;20454;-71
2022/11/18 14:59:51;;;;;;;7.30;6.27;;;;;;;;;;5077746;28;20984;-71
2022/11/18 15:02:40;;;;;;;15.93;11.90;;;;;;;;;;5078347;28;20481;-71
2022/11/18 15:05:31;;;;;;;16.80;12.37;;;;;;;;;;5080212;28;20456;-71
2022/11/18 15:08:20;;;;;;;19.20;13.90;;;;;;;;;;5081127;28;20444;-72
2022/11/18 15:11:09;;;;;;;17.60;13.23;;;;;;;;;;5077830;28;20486;-71
2022/11/18 15:13:59;;;;;;;20.33;13.30;;;;;;;;;;5076046;28;20478;-72
2022/11/18 15:16:50;;;;;;;32.17;22.03;;;;;;;;;;5073511;28;20561;-72
2022/11/18 15:19:40;;;;;;;17.23;12.13;;;;;;;;;;5076626;28;20493;-71
2022/11/18 15:22:29;;;;;;;8.20;6.20;;;;;;;;;;5073759;28;20591;-72
2022/11/18 15:25:17;;;;;;;11.80;8.30;;;;;;;;;;5073264;28;20935;-71
2022/11/18 15:28:06;;;;;;;12.20;9.47;;;;;;;;;;5078972;28;20458;-72
2022/11/18 15:30:56;;;;;;;11.50;8.57;;;;;;;;;;5076410;28;20474;-72
2022/11/18 15:33:45;;;;;;;7.90;6.17;;;;;;;;;;5074593;28;20830;-71
2022/11/18 15:36:35;;;;;;;8.10;6.17;;;;;;;;;;5078621;28;20539;-71
2022/11/18 15:39:24;;;;;;;7.20;5.50;;;;;;;;;;5076933;28;20481;-71
2022/11/18 15:42:13;;;;;;;7.77;6.33;;;;;;;;;;5080736;28;20499;-71
2022/11/18 15:45:10;;;;;;;8.20;5.97;;;;;;;;;;5078342;28;20537;-71
2022/11/18 15:48:00;;;;;;;6.73;6.03;;;;;;;;;;5082798;28;20908;-71
2022/11/18 15:50:48;;;;;;;7.50;5.80;;;;;;;;;;5084807;28;20474;-71
2022/11/18 15:53:41;;;;;;;10.40;6.37;;;;;;;;;;5078785;28;20454;-71
2022/11/18 15:56:31;;;;;;;8.53;6.10;;;;;;;;;;5079761;28;20460;-71
2022/11/18 15:59:20;;;;;;;11.60;7.70;;;;;;;;;;5077634;28;20482;-71
2022/11/18 16:02:09;;;;;;;8.27;5.50;;;;;;;;;;5079974;28;20489;-71
2022/11/18 16:05:01;;;;;;;9.27;6.70;;;;;;;;;;5077867;28;20441;-71
2022/11/18 16:07:49;;;;;;;8.10;6.77;;;;;;;;;;5086256;28;20451;-71
2022/11/18 16:13:48;;;;;;;9.10;6.37;;;;;;;;;;5103525;28;20433;-71
2022/11/18 16:16:37;;;;;;;9.40;7.87;;;;;;;;;;5082160;28;20442;-71
2022/11/18 16:19:30;;;;;;;7.50;6.40;;;;;;;;;;5081674;28;20481;-71
2022/11/18 16:22:21;;;;;;;11.90;7.00;;;;;;;;;;5079305;28;20482;-72
2022/11/18 16:29:00;;;;;;;8.80;7.07;;;;;;;;;;5091912;28;20424;-71
2022/11/18 16:31:51;;;;;;;6.27;5.47;;;;;;;;;;5103078;28;20894;-71
2022/11/18 16:34:39;;;;;;;7.40;6.40;;;;;;;;;;5110472;28;20463;-73
2022/11/18 16:37:30;;;;;;;8.13;6.53;;;;;;;;;;5103638;28;20446;-71
2022/11/18 16:40:18;;;;;;;7.73;6.57;;;;;;;;;;5105560;28;20472;-71
2022/11/18 16:43:07;;;;;;;7.17;6.47;;;;;;;;;;5096850;28;20477;-71
2022/11/18 16:45:56;;;;;;;8.67;6.80;;;;;;;;;;5093275;28;20518;-71
2022/11/18 16:48:44;;;;;;;7.63;6.37;;;;;;;;;;5094997;28;20446;-71
2022/11/18 16:51:34;;;;;;;7.27;6.37;;;;;;;;;;5084942;28;20582;-71
2022/11/18 16:54:25;;;;;;;6.67;6.03;;;;;;;;;;5073665;28;20513;-73
2022/11/18 16:57:15;;;;;;;6.30;5.70;;;;;;;;;;5075610;28;20460;-71
2022/11/18 17:00:04;;;;;;;6.10;5.50;;;;;;;;;;5080648;28;20469;-72
2022/11/18 17:02:53;;;;;;;5.97;5.37;;;;;;;;;;5069125;28;20492;-72
2022/11/18 17:05:44;;;;;;;6.67;5.50;;;;;;;;;;5075294;28;20456;-72
2022/11/18 17:08:36;;;;;;;5.83;5.10;;;;;;;;;;5073678;28;20435;-72
2022/11/18 17:11:26;;;;;;;7.10;5.10;;;;;;;;;;5073778;28;20502;-72
2022/11/18 17:14:14;;;;;;;5.53;4.63;;;;;;;;;;5074454;28;21844;-71
2022/11/18 17:20:31;;;;;;;5.20;4.70;;;;;;;;;;5069864;28;20983;-72
2022/11/18 17:23:20;;;;;;;5.30;4.10;;;;;;;;;;5053766;28;20457;-71
2022/11/18 17:26:09;;;;;;;4.40;4.00;;;;;;;;;;5074358;28;20468;-71
2022/11/18 17:28:59;;;;;;;5.83;4.93;;;;;;;;;;5076585;28;20460;-72
2022/11/18 17:31:47;;;;;;;5.00;4.50;;;;;;;;;;5072425;28;20499;-72
2022/11/18 17:34:36;;;;;;;4.47;4.07;;;;;;;;;;5074640;28;20449;-71
2022/11/18 17:37:24;;;;;;;4.70;4.17;;;;;;;;;;5060634;28;22423;-71
2022/11/18 17:40:13;;;;;;;6.27;4.53;;;;;;;;;;5073195;28;21004;-71
2022/11/18 17:43:02;;;;;;;4.27;3.83;;;;;;;;;;5079558;28;20960;-71